ORA weather

Orán Airport
Orán, Salta Province, Argentina

Public forecast

Using degrees Celsius for public forecast. Weather courtesy of forecast.io.

Closest aviation weather report (METAR) to Orán Airport

Report is more than 6 hours old.

Closest report is Bermejo Airport, 22.8 nm (42.2 km) N. Retrieved 2018/03/14 13:00 UTC (2 years ago):

SLBJ 141300Z 32003KT 9999 SCT013 BKN070 23/22 Q1010

Closest aviation forecast (TAF) to Orán Airport

Forecast is more than 12 hours old.

Closest forecast is Yacuiba Airport, 80.8 nm (149.7 km) NNE. Retrieved 2019/10/03 00:00 UTC (17 days ago):

TAF SLYA 032200Z 0400/0424 00000KT 9999 FEW020 SCT070 TX21/0419Z TN15 /0411Z BECMG 0413/0415 14010KT SCT020 BKN070